sensor_id;sensor_type;location;lat;lon;timestamp;pressure;altitude;pressure_sealevel;temperature;humidity
43838;BME280;29493;46.516;6.638;2022-11-30T00:00:16;95922.72;;;6.36;100.00
43838;BME280;29493;46.516;6.638;2022-11-30T00:03:02;95928.03;;;6.39;100.00
43838;BME280;29493;46.516;6.638;2022-11-30T00:05:28;95923.31;;;6.40;100.00
43838;BME280;29493;46.516;6.638;2022-11-30T00:07:54;95915.13;;;6.40;100.00
43838;BME280;29493;46.516;6.638;2022-11-30T00:10:20;95915.41;;;6.42;100.00
43838;BME280;29493;46.516;6.638;2022-11-30T00:12:46;95915.72;;;6.44;100.00
43838;BME280;29493;46.516;6.638;2022-11-30T00:15:12;95916.03;;;6.46;100.00
43838;BME280;29493;46.516;6.638;2022-11-30T00:17:42;95920.28;;;6.47;100.00
43838;BME280;29493;46.516;6.638;2022-11-30T00:20:07;95909.50;;;6.44;100.00
43838;BME280;29493;46.516;6.638;2022-11-30T00:22:33;95904.94;;;6.40;100.00
43838;BME280;29493;46.516;6.638;2022-11-30T00:24:59;95900.81;;;6.45;100.00
43838;BME280;29493;46.516;6.638;2022-11-30T00:27:27;95903.56;;;6.45;100.00
43838;BME280;29493;46.516;6.638;2022-11-30T00:29:54;95900.38;;;6.47;100.00
43838;BME280;29493;46.516;6.638;2022-11-30T00:32:19;95900.81;;;6.45;100.00
43838;BME280;29493;46.516;6.638;2022-11-30T00:34:45;95904.63;;;6.48;100.00
43838;BME280;29493;46.516;6.638;2022-11-30T00:37:10;95896.13;;;6.46;100.00
43838;BME280;29493;46.516;6.638;2022-11-30T00:39:36;95905.53;;;6.45;100.00
43838;BME280;29493;46.516;6.638;2022-11-30T00:42:01;95900.81;;;6.45;100.00
43838;BME280;29493;46.516;6.638;2022-11-30T00:44:27;95912.06;;;6.47;100.00
43838;BME280;29493;46.516;6.638;2022-11-30T00:46:54;95907.34;;;6.48;100.00
43838;BME280;29493;46.516;6.638;2022-11-30T00:49:19;95907.06;;;6.46;100.00
43838;BME280;29493;46.516;6.638;2022-11-30T00:51:45;95909.03;;;6.45;100.00
43838;BME280;29493;46.516;6.638;2022-11-30T00:54:12;95916.19;;;6.43;100.00
43838;BME280;29493;46.516;6.638;2022-11-30T00:56:37;95909.94;;;6.42;100.00
43838;BME280;29493;46.516;6.638;2022-11-30T00:59:03;95913.91;;;6.41;100.00
43838;BME280;29493;46.516;6.638;2022-11-30T01:01:28;95912.09;;;6.38;100.00
43838;BME280;29493;46.516;6.638;2022-11-30T01:03:56;95921.38;;;6.31;100.00
43838;BME280;29493;46.516;6.638;2022-11-30T01:06:21;95928.34;;;6.32;100.00
43838;BME280;29493;46.516;6.638;2022-11-30T01:08:47;95926.38;;;6.33;100.00
43838;BME280;29493;46.516;6.638;2022-11-30T01:11:25;95925.91;;;6.34;100.00
43838;BME280;29493;46.516;6.638;2022-11-30T01:13:51;95925.16;;;6.34;100.00
43838;BME280;29493;46.516;6.638;2022-11-30T01:16:18;95925.91;;;6.34;100.00
43838;BME280;29493;46.516;6.638;2022-11-30T01:18:45;95927.13;;;6.33;100.00
43838;BME280;29493;46.516;6.638;2022-11-30T01:21:12;95926.06;;;6.31;100.00
43838;BME280;29493;46.516;6.638;2022-11-30T01:23:38;95929.56;;;6.31;100.00
43838;BME280;29493;46.516;6.638;2022-11-30T01:26:04;95923.03;;;6.29;100.00
43838;BME280;29493;46.516;6.638;2022-11-30T01:28:30;95925.78;;;6.29;100.00
43838;BME280;29493;46.516;6.638;2022-11-30T01:30:59;95926.22;;;6.27;100.00
43838;BME280;29493;46.516;6.638;2022-11-30T01:33:25;95925.94;;;6.25;100.00
43838;BME280;29493;46.516;6.638;2022-11-30T01:38:30;95923.97;;;6.26;100.00
43838;BME280;29493;46.516;6.638;2022-11-30T01:40:56;95929.09;;;6.24;100.00
43838;BME280;29493;46.516;6.638;2022-11-30T01:43:35;95933.38;;;6.25;100.00
43838;BME280;29493;46.516;6.638;2022-11-30T01:46:00;95930.66;;;6.25;100.00
43838;BME280;29493;46.516;6.638;2022-11-30T01:48:26;95925.47;;;6.27;100.00
43838;BME280;29493;46.516;6.638;2022-11-30T01:50:52;95930.19;;;6.26;100.00
43838;BME280;29493;46.516;6.638;2022-11-30T01:53:18;95923.97;;;6.26;100.00
43838;BME280;29493;46.516;6.638;2022-11-30T01:55:45;95918.03;;;6.27;100.00
43838;BME280;29493;46.516;6.638;2022-11-30T01:58:14;95918.94;;;6.24;100.00
43838;BME280;29493;46.516;6.638;2022-11-30T02:00:42;95912.69;;;6.24;100.00
43838;BME280;29493;46.516;6.638;2022-11-30T02:05:52;95911.47;;;6.16;100.00
43838;BME280;29493;46.516;6.638;2022-11-30T02:08:18;95911.47;;;6.16;100.00
43838;BME280;29493;46.516;6.638;2022-11-30T02:10:45;95910.28;;;6.17;100.00
43838;BME280;29493;46.516;6.638;2022-11-30T02:18:31;95916.50;;;6.17;100.00
43838;BME280;29493;46.516;6.638;2022-11-30T02:21:02;95913.00;;;6.17;100.00
43838;BME280;29493;46.516;6.638;2022-11-30T02:31:14;95924.25;;;6.19;100.00
43838;BME280;29493;46.516;6.638;2022-11-30T02:33:41;95919.84;;;6.21;100.00
43838;BME280;29493;46.516;6.638;2022-11-30T02:36:07;95926.81;;;6.22;100.00
43838;BME280;29493;46.516;6.638;2022-11-30T02:38:34;95916.34;;;6.21;100.00
43838;BME280;29493;46.516;6.638;2022-11-30T02:40:59;95912.09;;;6.20;100.00
43838;BME280;29493;46.516;6.638;2022-11-30T02:43:25;95913.59;;;6.21;100.00
43838;BME280;29493;46.516;6.638;2022-11-30T02:45:54;95912.38;;;6.22;100.00
43838;BME280;29493;46.516;6.638;2022-11-30T02:48:31;95913.75;;;6.17;100.00
43838;BME280;29493;46.516;6.638;2022-11-30T02:51:01;95912.25;;;6.16;100.00
43838;BME280;29493;46.516;6.638;2022-11-30T02:53:29;95909.50;;;6.16;100.00
43838;BME280;29493;46.516;6.638;2022-11-30T02:55:54;95907.22;;;6.15;100.00
43838;BME280;29493;46.516;6.638;2022-11-30T02:58:20;95906.94;;;6.13;100.00
43838;BME280;29493;46.516;6.638;2022-11-30T03:00:46;95906.16;;;6.12;100.00
43838;BME280;29493;46.516;6.638;2022-11-30T03:03:12;95906.47;;;6.14;100.00
43838;BME280;29493;46.516;6.638;2022-11-30T03:05:38;95901.47;;;6.13;100.00
43838;BME280;29493;46.516;6.638;2022-11-30T03:08:04;95910.28;;;6.17;100.00
43838;BME280;29493;46.516;6.638;2022-11-30T03:10:29;95904.50;;;6.15;100.00
43838;BME280;29493;46.516;6.638;2022-11-30T03:12:58;95896.59;;;6.17;100.00
43838;BME280;29493;46.516;6.638;2022-11-30T03:15:24;95901.75;;;6.15;100.00
43838;BME280;29493;46.516;6.638;2022-11-30T03:17:49;95902.53;;;6.15;100.00
43838;BME280;29493;46.516;6.638;2022-11-30T03:20:15;95897.34;;;6.17;100.00
43838;BME280;29493;46.516;6.638;2022-11-30T03:22:41;95896.59;;;6.17;100.00
43838;BME280;29493;46.516;6.638;2022-11-30T03:25:06;95899.19;;;6.20;100.00
43838;BME280;29493;46.516;6.638;2022-11-30T03:27:32;95904.19;;;6.22;100.00
43838;BME280;29493;46.516;6.638;2022-11-30T03:29:58;95898.13;;;6.18;100.00
43838;BME280;29493;46.516;6.638;2022-11-30T03:32:24;95901.16;;;6.20;100.00
43838;BME280;29493;46.516;6.638;2022-11-30T03:34:49;95902.66;;;6.21;100.00
43838;BME280;29493;46.516;6.638;2022-11-30T03:37:15;95907.84;;;6.19;100.00
43838;BME280;29493;46.516;6.638;2022-11-30T03:39:40;95912.25;;;6.16;100.00
43838;BME280;29493;46.516;6.638;2022-11-30T03:42:06;95910.72;;;6.15;100.00
43838;BME280;29493;46.516;6.638;2022-11-30T03:44:32;95909.22;;;6.14;100.00
43838;BME280;29493;46.516;6.638;2022-11-30T03:46:57;95903.44;;;6.12;100.00
43838;BME280;29493;46.516;6.638;2022-11-30T03:49:23;95900.53;;;6.16;100.00
43838;BME280;29493;46.516;6.638;2022-11-30T03:51:49;95904.78;;;6.17;100.00
43838;BME280;29493;46.516;6.638;2022-11-30T03:54:14;95905.25;;;6.15;100.00
43838;BME280;29493;46.516;6.638;2022-11-30T03:56:40;95900.25;;;6.14;100.00
43838;BME280;29493;46.516;6.638;2022-11-30T03:59:06;95901.75;;;6.15;100.00
43838;BME280;29493;46.516;6.638;2022-11-30T04:01:31;95899.34;;;6.17;100.00
43838;BME280;29493;46.516;6.638;2022-11-30T04:03:57;95899.03;;;6.15;100.00
43838;BME280;29493;46.516;6.638;2022-11-30T04:06:23;95897.50;;;6.14;100.00
43838;BME280;29493;46.516;6.638;2022-11-30T04:08:48;95895.53;;;6.14;100.00
43838;BME280;29493;46.516;6.638;2022-11-30T04:11:14;95908.44;;;6.14;100.00
43838;BME280;29493;46.516;6.638;2022-11-30T04:13:40;95902.97;;;6.14;100.00
43838;BME280;29493;46.516;6.638;2022-11-30T04:16:06;95907.69;;;6.13;100.00
43838;BME280;29493;46.516;6.638;2022-11-30T04:18:32;95909.97;;;6.15;100.00
43838;BME280;29493;46.516;6.638;2022-11-30T04:20:58;95910.41;;;6.13;100.00
43838;BME280;29493;46.516;6.638;2022-11-30T04:23:25;95907.38;;;6.11;100.00
43838;BME280;29493;46.516;6.638;2022-11-30T04:25:51;95916.03;;;6.09;100.00
43838;BME280;29493;46.516;6.638;2022-11-30T04:28:16;95918.31;;;6.11;100.00
43838;BME280;29493;46.516;6.638;2022-11-30T04:30:43;95916.81;;;6.10;100.00
43838;BME280;29493;46.516;6.638;2022-11-30T04:33:10;95919.69;;;6.06;100.00
43838;BME280;29493;46.516;6.638;2022-11-30T04:35:39;95920.91;;;6.05;100.00
43838;BME280;29493;46.516;6.638;2022-11-30T04:38:06;95917.88;;;6.03;100.00
43838;BME280;29493;46.516;6.638;2022-11-30T04:40:31;95914.38;;;6.03;100.00
43838;BME280;29493;46.516;6.638;2022-11-30T04:42:57;95912.72;;;6.05;100.00
43838;BME280;29493;46.516;6.638;2022-11-30T04:45:23;95909.22;;;6.05;100.00
43838;BME280;29493;46.516;6.638;2022-11-30T04:47:48;95910.72;;;6.06;100.00
43838;BME280;29493;46.516;6.638;2022-11-30T04:50:14;95903.91;;;6.01;100.00
43838;BME280;29493;46.516;6.638;2022-11-30T04:52:39;95911.03;;;5.99;100.00
43838;BME280;29493;46.516;6.638;2022-11-30T04:55:05;95913.31;;;6.00;100.00
43838;BME280;29493;46.516;6.638;2022-11-30T04:57:30;95911.81;;;5.99;100.00
43838;BME280;29493;46.516;6.638;2022-11-30T04:59:56;95920.00;;;5.99;100.00
43838;BME280;29493;46.516;6.638;2022-11-30T05:02:22;95914.06;;;6.01;100.00
43838;BME280;29493;46.516;6.638;2022-11-30T05:04:48;95916.06;;;6.00;100.00
43838;BME280;29493;46.516;6.638;2022-11-30T05:07:13;95915.28;;;6.00;100.00
43838;BME280;29493;46.516;6.638;2022-11-30T05:09:39;95914.84;;;6.01;100.00
43838;BME280;29493;46.516;6.638;2022-11-30T05:12:04;95918.19;;;6.05;100.00
43838;BME280;29493;46.516;6.638;2022-11-30T05:14:30;95920.75;;;6.09;100.00
43838;BME280;29493;46.516;6.638;2022-11-30T05:16:56;95923.34;;;6.13;100.00
43838;BME280;29493;46.516;6.638;2022-11-30T05:19:21;95929.56;;;6.13;100.00
43838;BME280;29493;46.516;6.638;2022-11-30T05:21:47;95919.84;;;6.12;100.00
43838;BME280;29493;46.516;6.638;2022-11-30T05:24:12;95915.13;;;6.13;100.00
43838;BME280;29493;46.516;6.638;2022-11-30T05:26:38;95920.59;;;6.13;100.00
43838;BME280;29493;46.516;6.638;2022-11-30T05:29:04;95921.34;;;6.13;100.00
43838;BME280;29493;46.516;6.638;2022-11-30T05:31:30;95921.06;;;6.11;100.00
43838;BME280;29493;46.516;6.638;2022-11-30T05:33:56;95915.75;;;6.07;100.00
43838;BME280;29493;46.516;6.638;2022-11-30T05:36:21;95921.22;;;6.07;100.00
43838;BME280;29493;46.516;6.638;2022-11-30T05:38:47;95918.19;;;6.05;100.00
43838;BME280;29493;46.516;6.638;2022-11-30T05:41:13;95920.59;;;6.03;100.00
43838;BME280;29493;46.516;6.638;2022-11-30T05:43:39;95905.88;;;6.01;100.00
43838;BME280;29493;46.516;6.638;2022-11-30T05:46:06;95910.28;;;5.98;100.00
43838;BME280;29493;46.516;6.638;2022-11-30T05:48:32;95911.81;;;5.99;100.00
43838;BME280;29493;46.516;6.638;2022-11-30T05:51:10;95906.34;;;5.99;100.00
43838;BME280;29493;46.516;6.638;2022-11-30T05:53:37;95916.34;;;5.93;100.00
43838;BME280;29493;46.516;6.638;2022-11-30T05:56:03;95913.63;;;5.93;100.00
43838;BME280;29493;46.516;6.638;2022-11-30T05:58:29;95920.91;;;5.96;100.00
43838;BME280;29493;46.516;6.638;2022-11-30T06:00:54;95919.84;;;5.94;100.00
43838;BME280;29493;46.516;6.638;2022-11-30T06:03:20;95919.25;;;5.90;100.00
43838;BME280;29493;46.516;6.638;2022-11-30T06:05:48;95919.66;;;5.88;100.00
43838;BME280;29493;46.516;6.638;2022-11-30T06:08:14;95915.56;;;5.84;100.00
43838;BME280;29493;46.516;6.638;2022-11-30T06:10:41;95916.34;;;5.84;100.00
43838;BME280;29493;46.516;6.638;2022-11-30T06:13:07;95911.31;;;5.83;100.00
43838;BME280;29493;46.516;6.638;2022-11-30T06:15:37;95914.06;;;5.83;100.00
43838;BME280;29493;46.516;6.638;2022-11-30T06:18:03;95914.97;;;5.80;100.00
43838;BME280;29493;46.516;6.638;2022-11-30T06:20:28;95908.28;;;5.81;100.00
43838;BME280;29493;46.516;6.638;2022-11-30T06:22:54;95905.56;;;5.81;100.00
43838;BME280;29493;46.516;6.638;2022-11-30T06:25:22;95901.00;;;5.77;100.00
43838;BME280;29493;46.516;6.638;2022-11-30T06:27:48;95912.38;;;5.76;100.00
43838;BME280;29493;46.516;6.638;2022-11-30T06:30:13;95909.66;;;5.76;100.00
43838;BME280;29493;46.516;6.638;2022-11-30T06:32:41;95917.09;;;5.75;100.00
43838;BME280;29493;46.516;6.638;2022-11-30T06:35:08;95913.91;;;5.77;100.00
43838;BME280;29493;46.516;6.638;2022-11-30T06:37:34;95911.31;;;5.73;100.00
43838;BME280;29493;46.516;6.638;2022-11-30T06:40:00;95919.22;;;5.71;100.00
43838;BME280;29493;46.516;6.638;2022-11-30T06:42:27;95912.53;;;5.72;100.00
43838;BME280;29493;46.516;6.638;2022-11-30T06:44:52;95922.25;;;5.73;100.00
43838;BME280;29493;46.516;6.638;2022-11-30T06:47:18;95922.25;;;5.73;100.00
43838;BME280;29493;46.516;6.638;2022-11-30T06:49:43;95925.44;;;5.72;100.00
43838;BME280;29493;46.516;6.638;2022-11-30T06:52:09;95922.25;;;5.73;100.00
43838;BME280;29493;46.516;6.638;2022-11-30T06:54:35;95925.88;;;5.70;100.00
43838;BME280;29493;46.516;6.638;2022-11-30T06:57:00;95925.13;;;5.70;100.00
43838;BME280;29493;46.516;6.638;2022-11-30T06:59:26;95927.41;;;5.71;100.00
43838;BME280;29493;46.516;6.638;2022-11-30T07:01:51;95922.84;;;5.68;100.00
43838;BME280;29493;46.516;6.638;2022-11-30T07:04:17;95919.34;;;5.68;100.00
43838;BME280;29493;46.516;6.638;2022-11-30T07:06:43;95915.25;;;5.72;100.00
43838;BME280;29493;46.516;6.638;2022-11-30T07:09:08;95921.50;;;5.73;100.00
43838;BME280;29493;46.516;6.638;2022-11-30T07:11:34;95915.13;;;5.76;100.00
43838;BME280;29493;46.516;6.638;2022-11-30T07:14:00;95917.41;;;5.77;100.00
43838;BME280;29493;46.516;6.638;2022-11-30T07:16:26;95915.41;;;5.87;100.00
43838;BME280;29493;46.516;6.638;2022-11-30T07:18:51;95921.97;;;5.90;100.00
43838;BME280;29493;46.516;6.638;2022-11-30T07:21:17;95924.25;;;5.91;100.00
43838;BME280;29493;46.516;6.638;2022-11-30T07:23:42;95927.59;;;5.95;100.00
43838;BME280;29493;46.516;6.638;2022-11-30T07:26:27;95926.38;;;5.96;100.00
43838;BME280;29493;46.516;6.638;2022-11-30T07:28:52;95922.72;;;5.99;100.00
43838;BME280;29493;46.516;6.638;2022-11-30T07:31:26;95929.56;;;6.13;100.00
43838;BME280;29493;46.516;6.638;2022-11-30T07:33:52;95923.63;;;6.24;100.00
43838;BME280;29493;46.516;6.638;2022-11-30T07:36:19;95936.84;;;5.98;100.00
43838;BME280;29493;46.516;6.638;2022-11-30T07:38:44;95935.19;;;5.91;100.00
43838;BME280;29493;46.516;6.638;2022-11-30T07:41:10;95930.03;;;5.93;100.00
43838;BME280;29493;46.516;6.638;2022-11-30T07:43:36;95929.25;;;5.93;100.00
43838;BME280;29493;46.516;6.638;2022-11-30T07:46:02;95938.06;;;5.97;100.00
43838;BME280;29493;46.516;6.638;2022-11-30T07:48:28;95935.66;;;5.99;100.00
43838;BME280;29493;46.516;6.638;2022-11-30T07:51:00;95940.50;;;6.04;100.00
43838;BME280;29493;46.516;6.638;2022-11-30T07:53:25;95935.66;;;5.99;100.00
43838;BME280;29493;46.516;6.638;2022-11-30T07:55:51;95942.78;;;5.96;100.00
43838;BME280;29493;46.516;6.638;2022-11-30T07:58:16;95949.00;;;6.06;100.00
43838;BME280;29493;46.516;6.638;2022-11-30T08:00:42;95952.66;;;6.12;100.00
43838;BME280;29493;46.516;6.638;2022-11-30T08:03:07;95942.78;;;6.15;100.00
43838;BME280;29493;46.516;6.638;2022-11-30T08:05:33;95953.72;;;6.15;100.00
43838;BME280;29493;46.516;6.638;2022-11-30T08:07:59;95948.25;;;6.15;100.00
43838;BME280;29493;46.516;6.638;2022-11-30T08:10:25;95949.75;;;6.16;100.00
43838;BME280;29493;46.516;6.638;2022-11-30T08:12:50;95950.22;;;6.14;100.00
43838;BME280;29493;46.516;6.638;2022-11-30T08:15:16;95947.78;;;6.16;100.00
43838;BME280;29493;46.516;6.638;2022-11-30T08:17:41;95947.63;;;6.20;100.00
43838;BME280;29493;46.516;6.638;2022-11-30T08:20:08;95944.44;;;6.21;100.00
43838;BME280;29493;46.516;6.638;2022-11-30T08:22:33;95952.81;;;6.27;100.00
43838;BME280;29493;46.516;6.638;2022-11-30T08:24:59;95954.34;;;6.28;100.00
43838;BME280;29493;46.516;6.638;2022-11-30T08:27:25;95954.03;;;6.26;100.00
43838;BME280;29493;46.516;6.638;2022-11-30T08:29:51;95950.38;;;6.29;100.00
43838;BME280;29493;46.516;6.638;2022-11-30T08:32:16;95956.31;;;6.36;100.00
43838;BME280;29493;46.516;6.638;2022-11-30T08:34:42;95955.09;;;6.37;100.00
43838;BME280;29493;46.516;6.638;2022-11-30T08:37:07;95956.28;;;6.46;100.00
43838;BME280;29493;46.516;6.638;2022-11-30T08:39:33;95954.59;;;6.57;100.00
43838;BME280;29493;46.516;6.638;2022-11-30T08:41:59;95947.59;;;6.65;100.00
43838;BME280;29493;46.516;6.638;2022-11-30T08:44:25;95958.06;;;6.76;100.00
43838;BME280;29493;46.516;6.638;2022-11-30T08:46:50;95960.47;;;6.83;100.00
43838;BME280;29493;46.516;6.638;2022-11-30T08:49:17;95951.16;;;6.90;100.00
43838;BME280;29493;46.516;6.638;2022-11-30T08:51:42;95952.97;;;6.93;100.00
43838;BME280;29493;46.516;6.638;2022-11-30T08:54:08;95947.94;;;7.00;100.00
43838;BME280;29493;46.516;6.638;2022-11-30T08:56:34;95958.09;;;7.09;100.00
43838;BME280;29493;46.516;6.638;2022-11-30T08:59:00;95953.34;;;7.19;100.00
43838;BME280;29493;46.516;6.638;2022-11-30T09:01:25;95965.03;;;7.28;100.00
43838;BME280;29493;46.516;6.638;2022-11-30T09:03:52;95960.31;;;7.29;100.00
43838;BME280;29493;46.516;6.638;2022-11-30T09:06:20;95953.88;;;7.41;100.00
43838;BME280;29493;46.516;6.638;2022-11-30T09:08:47;95956.34;;;7.63;100.00
43838;BME280;29493;46.516;6.638;2022-11-30T09:11:23;95955.22;;;7.93;100.00
43838;BME280;29493;46.516;6.638;2022-11-30T09:13:49;95952.06;;;8.48;100.00
43838;BME280;29493;46.516;6.638;2022-11-30T09:16:17;95949.44;;;8.83;100.00
43838;BME280;29493;46.516;6.638;2022-11-30T09:18:43;95956.00;;;9.21;100.00
43838;BME280;29493;46.516;6.638;2022-11-30T09:21:11;95962.03;;;9.54;100.00
43838;BME280;29493;46.516;6.638;2022-11-30T09:23:37;95960.00;;;9.90;100.00
43838;BME280;29493;46.516;6.638;2022-11-30T09:26:03;95960.91;;;10.22;100.00
43838;BME280;29493;46.516;6.638;2022-11-30T09:28:30;95959.66;;;10.43;100.00
43838;BME280;29493;46.516;6.638;2022-11-30T09:31:03;95952.38;;;10.66;100.00
43838;BME280;29493;46.516;6.638;2022-11-30T09:33:29;95962.28;;;10.78;100.00
43838;BME280;29493;46.516;6.638;2022-11-30T09:35:55;95955.69;;;10.70;100.00
43838;BME280;29493;46.516;6.638;2022-11-30T09:38:21;95953.84;;;10.62;100.00
43838;BME280;29493;46.516;6.638;2022-11-30T09:40:47;95953.59;;;10.60;100.00
43838;BME280;29493;46.516;6.638;2022-11-30T09:43:23;95959.63;;;10.64;100.00
43838;BME280;29493;46.516;6.638;2022-11-30T09:45:55;95960.13;;;10.62;100.00
43838;BME280;29493;46.516;6.638;2022-11-30T09:48:30;95956.16;;;10.43;100.00
43838;BME280;29493;46.516;6.638;2022-11-30T09:50:59;95956.72;;;10.27;100.00
43838;BME280;29493;46.516;6.638;2022-11-30T09:53:42;95957.25;;;10.10;100.00
43838;BME280;29493;46.516;6.638;2022-11-30T09:59:11;95950.03;;;9.92;100.00
43838;BME280;29493;46.516;6.638;2022-11-30T10:01:39;95953.94;;;10.06;100.00
43838;BME280;29493;46.516;6.638;2022-11-30T10:04:04;95948.09;;;10.19;100.00
43838;BME280;29493;46.516;6.638;2022-11-30T10:06:46;95937.03;;;10.34;100.00
43838;BME280;29493;46.516;6.638;2022-11-30T10:09:20;95941.22;;;10.29;100.00
43838;BME280;29493;46.516;6.638;2022-11-30T10:25:13;95928.56;;;10.37;100.00
43838;BME280;29493;46.516;6.638;2022-11-30T10:27:48;95928.63;;;10.43;100.00
43838;BME280;29493;46.516;6.638;2022-11-30T10:30:25;95920.03;;;10.35;100.00
43838;BME280;29493;46.516;6.638;2022-11-30T10:32:56;95925.03;;;10.37;100.00
43838;BME280;29493;46.516;6.638;2022-11-30T10:38:12;95919.41;;;10.26;100.00
43838;BME280;29493;46.516;6.638;2022-11-30T10:40:48;95922.16;;;10.26;100.00
43838;BME280;29493;46.516;6.638;2022-11-30T10:45:53;95912.78;;;10.17;100.00
43838;BME280;29493;46.516;6.638;2022-11-30T10:51:03;95906.06;;;10.18;100.00
43838;BME280;29493;46.516;6.638;2022-11-30T10:53:30;95907.38;;;10.23;100.00
43838;BME280;29493;46.516;6.638;2022-11-30T10:56:07;95915.69;;;10.29;100.00
43838;BME280;29493;46.516;6.638;2022-11-30T11:06:34;95907.75;;;10.36;100.00
43838;BME280;29493;46.516;6.638;2022-11-30T11:11:45;95904.19;;;10.50;99.82
43838;BME280;29493;46.516;6.638;2022-11-30T11:14:18;95901.69;;;10.52;100.00
43838;BME280;29493;46.516;6.638;2022-11-30T11:16:51;95905.38;;;10.44;100.00
43838;BME280;29493;46.516;6.638;2022-11-30T11:24:40;95888.78;;;10.38;100.00
43838;BME280;29493;46.516;6.638;2022-11-30T11:27:09;95886.94;;;10.55;100.00
43838;BME280;29493;46.516;6.638;2022-11-30T11:29:43;95900.34;;;10.68;100.00
43838;BME280;29493;46.516;6.638;2022-11-30T11:32:24;95888.56;;;10.68;100.00
43838;BME280;29493;46.516;6.638;2022-11-30T11:34:50;95886.59;;;10.74;100.00
43838;BME280;29493;46.516;6.638;2022-11-30T11:37:20;95895.00;;;10.91;100.00
43838;BME280;29493;46.516;6.638;2022-11-30T11:42:32;95878.09;;;11.09;98.30
43838;BME280;29493;46.516;6.638;2022-11-30T11:44:59;95887.56;;;11.02;97.24
43838;BME280;29493;46.516;6.638;2022-11-30T11:50:02;95884.34;;;11.04;97.97
43838;BME280;29493;46.516;6.638;2022-11-30T11:52:29;95883.19;;;10.84;97.36
43838;BME280;29493;46.516;6.638;2022-11-30T11:54:55;95874.00;;;10.62;98.05
43838;BME280;29493;46.516;6.638;2022-11-30T11:57:37;95882.97;;;10.57;99.64
43838;BME280;29493;46.516;6.638;2022-11-30T12:00:14;95872.06;;;10.42;99.21
43838;BME280;29493;46.516;6.638;2022-11-30T12:13:37;95873.97;;;9.89;100.00
43838;BME280;29493;46.516;6.638;2022-11-30T12:18:32;95871.06;;;9.99;100.00
43838;BME280;29493;46.516;6.638;2022-11-30T12:21:05;95870.09;;;10.02;100.00
43838;BME280;29493;46.516;6.638;2022-11-30T12:23:35;95871.63;;;10.03;100.00
43838;BME280;29493;46.516;6.638;2022-11-30T12:26:12;95866.88;;;10.03;100.00
43838;BME280;29493;46.516;6.638;2022-11-30T12:31:16;95875.81;;;9.98;100.00
43838;BME280;29493;46.516;6.638;2022-11-30T12:38:58;95875.28;;;9.74;100.00
43838;BME280;29493;46.516;6.638;2022-11-30T12:52:18;95872.59;;;9.39;100.00
43838;BME280;29493;46.516;6.638;2022-11-30T12:57:24;95874.13;;;9.25;100.00
43838;BME280;29493;46.516;6.638;2022-11-30T13:00:06;95870.84;;;9.21;100.00
43838;BME280;29493;46.516;6.638;2022-11-30T13:02:44;95872.81;;;9.20;100.00
43838;BME280;29493;46.516;6.638;2022-11-30T13:05:16;95864.59;;;9.20;100.00
43838;BME280;29493;46.516;6.638;2022-11-30T13:07:56;95847.06;;;9.18;100.00
43838;BME280;29493;46.516;6.638;2022-11-30T13:12:51;95863.72;;;8.94;100.00
43838;BME280;29493;46.516;6.638;2022-11-30T13:15:19;95849.97;;;8.94;100.00
43838;BME280;29493;46.516;6.638;2022-11-30T13:17:46;95861.25;;;8.96;100.00
43838;BME280;29493;46.516;6.638;2022-11-30T13:25:29;95856.53;;;8.82;100.00
43838;BME280;29493;46.516;6.638;2022-11-30T13:30:48;95850.78;;;8.65;100.00
43838;BME280;29493;46.516;6.638;2022-11-30T13:36:05;95860.72;;;8.62;100.00
43838;BME280;29493;46.516;6.638;2022-11-30T13:38:45;95852.03;;;8.64;100.00
43838;BME280;29493;46.516;6.638;2022-11-30T13:41:18;95849.09;;;8.68;100.00
43838;BME280;29493;46.516;6.638;2022-11-30T13:43:46;95854.00;;;8.63;100.00
43838;BME280;29493;46.516;6.638;2022-11-30T13:46:13;95853.91;;;8.58;100.00
43838;BME280;29493;46.516;6.638;2022-11-30T13:48:40;95849.84;;;8.53;100.00
43838;BME280;29493;46.516;6.638;2022-11-30T13:51:07;95843.13;;;8.54;100.00
43838;BME280;29493;46.516;6.638;2022-11-30T13:53:33;95854.13;;;8.54;100.00
43838;BME280;29493;46.516;6.638;2022-11-30T13:56:05;95850.63;;;8.54;100.00
43838;BME280;29493;46.516;6.638;2022-11-30T13:58:32;95846.25;;;8.47;100.00
43838;BME280;29493;46.516;6.638;2022-11-30T14:03:27;95846.56;;;8.35;100.00
43838;BME280;29493;46.516;6.638;2022-11-30T14:10:48;95844.28;;;8.33;100.00
43838;BME280;29493;46.516;6.638;2022-11-30T14:20:41;95857.84;;;8.27;100.00
43838;BME280;29493;46.516;6.638;2022-11-30T14:25:41;95859.75;;;8.21;100.00
43838;BME280;29493;46.516;6.638;2022-11-30T14:28:11;95857.47;;;8.20;100.00
43838;BME280;29493;46.516;6.638;2022-11-30T14:30:40;95852.16;;;8.16;100.00
43838;BME280;29493;46.516;6.638;2022-11-30T14:33:11;95855.09;;;8.13;100.00
43838;BME280;29493;46.516;6.638;2022-11-30T14:35:38;95855.09;;;8.13;100.00
43838;BME280;29493;46.516;6.638;2022-11-30T14:38:13;95855.09;;;8.13;100.00
43838;BME280;29493;46.516;6.638;2022-11-30T14:40:48;95850.06;;;8.35;100.00
43838;BME280;29493;46.516;6.638;2022-11-30T14:43:15;95859.84;;;8.12;100.00
43838;BME280;29493;46.516;6.638;2022-11-30T14:45:42;95867.19;;;8.06;100.00
43838;BME280;29493;46.516;6.638;2022-11-30T14:48:11;95872.22;;;8.08;100.00
43838;BME280;29493;46.516;6.638;2022-11-30T14:50:42;95859.91;;;8.03;100.00
43838;BME280;29493;46.516;6.638;2022-11-30T15:00:53;95855.56;;;7.96;100.00
43838;BME280;29493;46.516;6.638;2022-11-30T15:03:36;95846.75;;;7.92;100.00
43838;BME280;29493;46.516;6.638;2022-11-30T15:06:03;95853.19;;;7.89;100.00
43838;BME280;29493;46.516;6.638;2022-11-30T15:11:02;95851.94;;;7.76;100.00
43838;BME280;29493;46.516;6.638;2022-11-30T15:13:28;95854.66;;;7.76;100.00
43838;BME280;29493;46.516;6.638;2022-11-30T15:15:54;95856.06;;;7.71;100.00
43838;BME280;29493;46.516;6.638;2022-11-30T15:18:21;95859.66;;;7.62;100.00
43838;BME280;29493;46.516;6.638;2022-11-30T15:20:49;95867.41;;;7.64;100.00